createdAt,value
2023-03-16T00:01:36.584Z,56.37
2023-03-16T00:04:05.143Z,56.20
2023-03-16T00:06:33.623Z,56.22
2023-03-16T00:09:01.406Z,56.17
2023-03-16T00:11:30.110Z,56.17
2023-03-16T00:13:58.810Z,56.02
2023-03-16T00:16:26.678Z,56.06
2023-03-16T00:18:54.920Z,56.23
2023-03-16T00:21:22.937Z,56.03
2023-03-16T00:23:50.710Z,56.05
2023-03-16T00:26:18.878Z,55.94
2023-03-16T00:28:47.169Z,55.89
2023-03-16T00:31:15.929Z,55.98
2023-03-16T00:33:44.105Z,55.72
2023-03-16T00:36:12.887Z,55.86
2023-03-16T00:38:45.525Z,55.84
2023-03-16T00:41:15.173Z,55.79
2023-03-16T00:43:45.557Z,55.72
2023-03-16T00:46:16.061Z,55.68
2023-03-16T00:48:47.165Z,55.61
2023-03-16T00:51:17.860Z,55.55
2023-03-16T00:53:46.650Z,55.47
2023-03-16T00:56:14.676Z,55.43
2023-03-16T00:58:43.953Z,55.50
2023-03-16T01:01:17.347Z,55.56
2023-03-16T01:03:46.060Z,55.51
2023-03-16T01:06:17.270Z,55.60
2023-03-16T01:08:45.693Z,55.53
2023-03-16T01:11:18.677Z,55.41
2023-03-16T01:13:48.021Z,55.38
2023-03-16T01:16:19.038Z,55.42
2023-03-16T01:18:50.345Z,55.40
2023-03-16T01:21:18.565Z,55.36
2023-03-16T01:23:46.496Z,55.27
2023-03-16T01:26:18.804Z,55.32
2023-03-16T01:28:48.183Z,55.33
2023-03-16T01:31:16.702Z,55.25
2023-03-16T01:33:45.215Z,55.38
2023-03-16T01:36:18.290Z,55.25
2023-03-16T01:38:48.264Z,55.23
2023-03-16T01:41:17.610Z,55.27
2023-03-16T01:43:45.444Z,55.22
2023-03-16T01:46:18.643Z,55.17
2023-03-16T01:49:09.495Z,55.19
2023-03-16T01:51:43.921Z,55.12
2023-03-16T01:54:21.894Z,55.15
2023-03-16T01:57:00.242Z,55.20
2023-03-16T01:59:33.629Z,55.08
2023-03-16T02:02:02.654Z,55.11
2023-03-16T02:04:37.383Z,55.11
2023-03-16T02:07:08.326Z,55.07
2023-03-16T02:09:42.832Z,55.12
2023-03-16T02:12:18.030Z,55.15
2023-03-16T02:14:48.535Z,55.14
2023-03-16T02:17:20.920Z,55.14
2023-03-16T02:20:17.276Z,55.09
2023-03-16T02:22:50.329Z,55.06
2023-03-16T02:25:19.117Z,55.02
2023-03-16T02:28:15.597Z,55.05
2023-03-16T02:30:44.156Z,55.05
2023-03-16T02:33:13.716Z,55.03
2023-03-16T02:35:41.701Z,55.00
2023-03-16T02:38:10.016Z,54.99
2023-03-16T02:40:38.965Z,54.98
2023-03-16T02:43:14.665Z,55.05
2023-03-16T02:45:50.251Z,55.02
2023-03-16T02:48:38.258Z,54.98
2023-03-16T02:51:06.550Z,54.94
2023-03-16T02:53:34.746Z,54.79
2023-03-16T02:56:03.005Z,54.82
2023-03-16T02:58:32.151Z,54.88
2023-03-16T03:01:02.379Z,54.75
2023-03-16T03:03:34.399Z,54.79
2023-03-16T03:06:02.926Z,54.80
2023-03-16T03:08:33.013Z,54.84
2023-03-16T03:11:01.541Z,54.72
2023-03-16T03:13:30.002Z,54.70
2023-03-16T03:15:57.905Z,54.61
2023-03-16T03:18:26.310Z,54.41
2023-03-16T03:20:54.656Z,54.46
2023-03-16T03:23:22.620Z,54.52
2023-03-16T03:25:50.351Z,54.46
2023-03-16T03:28:18.652Z,54.49
2023-03-16T03:30:46.931Z,54.42
2023-03-16T03:33:14.867Z,54.34
2023-03-16T03:35:43.241Z,54.33
2023-03-16T03:38:11.676Z,54.31
2023-03-16T03:40:40.171Z,54.31
2023-03-16T03:43:08.439Z,54.26
2023-03-16T03:45:37.828Z,54.27
2023-03-16T03:48:06.245Z,54.35
2023-03-16T03:50:34.585Z,54.37
2023-03-16T03:53:03.561Z,54.38
2023-03-16T03:55:31.816Z,54.43
2023-03-16T03:58:01.682Z,54.37
2023-03-16T04:00:30.202Z,54.36
2023-03-16T04:02:58.505Z,54.37
2023-03-16T04:05:27.699Z,54.37
2023-03-16T04:07:57.555Z,54.38
2023-03-16T04:10:28.263Z,54.39
2023-03-16T04:12:58.292Z,54.39
2023-03-16T04:15:27.010Z,54.37
2023-03-16T04:17:55.325Z,54.26
2023-03-16T04:20:23.914Z,54.32
2023-03-16T04:22:58.651Z,54.29
2023-03-16T04:25:27.654Z,54.22
2023-03-16T04:27:56.618Z,54.19
2023-03-16T04:30:25.220Z,54.22
2023-03-16T04:32:53.568Z,54.24
2023-03-16T04:35:22.710Z,54.21
2023-03-16T04:37:52.409Z,54.22
2023-03-16T04:40:21.616Z,54.25
2023-03-16T04:42:50.249Z,54.24
2023-03-16T04:45:19.761Z,54.26
2023-03-16T04:47:50.098Z,54.29
2023-03-16T04:50:18.361Z,54.23
2023-03-16T04:52:49.090Z,54.26
2023-03-16T04:55:17.560Z,54.29
2023-03-16T04:57:46.039Z,54.27
2023-03-16T05:00:21.727Z,54.16
2023-03-16T05:02:54.765Z,54.22
2023-03-16T05:05:22.711Z,54.21
2023-03-16T05:07:51.545Z,54.19
2023-03-16T05:10:23.971Z,54.14
2023-03-16T05:12:53.171Z,54.15
2023-03-16T05:15:21.476Z,54.09
2023-03-16T05:17:51.503Z,54.01
2023-03-16T05:20:21.923Z,53.94
2023-03-16T05:22:51.254Z,53.89
2023-03-16T05:25:21.054Z,53.99
2023-03-16T05:27:52.135Z,53.85
2023-03-16T05:30:20.926Z,53.86
2023-03-16T05:32:48.763Z,53.83
2023-03-16T05:35:17.797Z,53.84
2023-03-16T05:37:46.569Z,53.84
2023-03-16T05:40:18.864Z,53.85
2023-03-16T05:42:49.644Z,53.80
2023-03-16T05:45:18.500Z,53.91
2023-03-16T05:47:47.499Z,53.80
2023-03-16T05:50:17.182Z,53.82
2023-03-16T05:52:46.457Z,53.84
2023-03-16T05:55:17.720Z,53.79
2023-03-16T05:57:48.373Z,53.72
2023-03-16T06:00:20.579Z,53.60
2023-03-16T06:02:51.554Z,53.54
2023-03-16T06:05:25.337Z,53.55
2023-03-16T06:07:53.621Z,53.48
2023-03-16T06:10:21.912Z,53.46
2023-03-16T06:12:50.119Z,53.37
2023-03-16T06:15:20.322Z,53.20
2023-03-16T06:17:48.892Z,53.34
2023-03-16T06:20:17.760Z,53.12
2023-03-16T06:22:46.382Z,53.09
2023-03-16T06:25:15.003Z,53.01
2023-03-16T06:27:43.592Z,52.86
2023-03-16T06:30:14.114Z,52.86
2023-03-16T06:32:42.774Z,52.83
2023-03-16T06:35:10.668Z,52.70
2023-03-16T06:37:40.196Z,52.67
2023-03-16T06:40:10.026Z,52.59
2023-03-16T06:42:37.891Z,52.59
2023-03-16T06:45:07.746Z,52.43
2023-03-16T06:47:36.026Z,52.35
2023-03-16T06:50:04.651Z,52.44
2023-03-16T06:52:32.962Z,52.13
2023-03-16T06:55:01.268Z,51.95
2023-03-16T06:57:29.920Z,51.90
2023-03-16T06:59:58.207Z,51.70
2023-03-16T07:02:26.758Z,51.53
2023-03-16T07:04:55.182Z,51.70
2023-03-16T07:07:24.649Z,51.46
2023-03-16T07:09:52.606Z,51.11
2023-03-16T07:12:20.449Z,51.09
2023-03-16T07:14:51.839Z,50.81
2023-03-16T07:17:21.937Z,50.83
2023-03-16T07:19:50.332Z,50.62
2023-03-16T07:22:18.305Z,50.65
2023-03-16T07:24:46.274Z,50.32
2023-03-16T07:27:14.785Z,50.47
2023-03-16T07:29:43.441Z,50.14
2023-03-16T07:32:11.721Z,49.68
2023-03-16T07:34:40.336Z,49.70
2023-03-16T07:37:09.218Z,49.79
2023-03-16T07:39:37.834Z,49.49
2023-03-16T07:42:06.702Z,49.19
2023-03-16T07:44:37.696Z,49.37
2023-03-16T07:47:07.208Z,49.04
2023-03-16T07:49:35.340Z,48.89
2023-03-16T07:52:03.481Z,48.77
2023-03-16T07:54:32.475Z,48.81
2023-03-16T07:57:01.384Z,48.99
2023-03-16T07:59:30.187Z,48.97
2023-03-16T08:01:58.519Z,48.61
2023-03-16T08:04:26.774Z,48.31
2023-03-16T08:07:00.312Z,48.27
2023-03-16T08:09:29.642Z,48.24
2023-03-16T08:11:57.519Z,48.22
2023-03-16T08:14:25.392Z,47.74
2023-03-16T08:16:55.197Z,48.04
2023-03-16T08:19:25.161Z,47.84
2023-03-16T08:22:01.430Z,47.31
2023-03-16T08:24:31.183Z,47.23
2023-03-16T08:27:01.147Z,46.87
2023-03-16T08:29:30.538Z,46.50
2023-03-16T08:31:58.710Z,46.05
2023-03-16T08:34:28.896Z,45.88
2023-03-16T08:36:57.277Z,45.73
2023-03-16T08:39:26.129Z,45.20
2023-03-16T08:41:55.351Z,43.28
2023-03-16T08:44:26.322Z,42.07
2023-03-16T08:46:54.872Z,40.07
2023-03-16T08:49:24.097Z,38.91
2023-03-16T08:51:54.320Z,38.04
2023-03-16T08:54:23.002Z,36.99
2023-03-16T08:56:51.905Z,36.33
2023-03-16T08:59:29.414Z,36.38
2023-03-16T09:01:58.933Z,35.59
2023-03-16T09:04:28.529Z,34.88
2023-03-16T09:07:08.465Z,33.99
2023-03-16T09:09:38.150Z,33.43
2023-03-16T09:12:06.486Z,33.29
2023-03-16T09:14:37.263Z,33.31
2023-03-16T09:17:07.856Z,33.62
2023-03-16T09:19:53.218Z,34.33
2023-03-16T09:22:22.731Z,35.28
2023-03-16T09:24:51.398Z,36.25
2023-03-16T09:27:20.789Z,36.87
2023-03-16T09:29:49.706Z,37.36
2023-03-16T09:32:17.606Z,37.74
2023-03-16T09:34:45.880Z,38.09
2023-03-16T09:37:14.718Z,37.95
2023-03-16T09:39:43.485Z,37.39
2023-03-16T09:42:24.091Z,36.85
2023-03-16T09:44:59.442Z,35.98
2023-03-16T09:47:31.299Z,35.28
2023-03-16T09:50:03.556Z,34.55
2023-03-16T09:52:50.594Z,34.12
2023-03-16T09:55:33.386Z,33.42
2023-03-16T09:58:18.113Z,33.18
2023-03-16T10:01:01.305Z,33.14
2023-03-16T10:03:38.428Z,33.22
2023-03-16T10:06:11.716Z,32.96
2023-03-16T10:08:45.612Z,33.24
2023-03-16T10:11:28.270Z,33.66
2023-03-16T10:14:29.049Z,33.83
2023-03-16T10:17:00.728Z,34.23
2023-03-16T10:19:47.170Z,34.44
2023-03-16T10:22:27.197Z,35.09
2023-03-16T10:25:43.773Z,35.54
2023-03-16T10:28:24.857Z,35.93
2023-03-16T10:30:56.449Z,36.18
2023-03-16T10:33:30.400Z,36.63
2023-03-16T10:36:05.785Z,36.98
2023-03-16T10:38:40.124Z,37.45
2023-03-16T10:41:21.452Z,37.67
2023-03-16T10:43:58.325Z,38.16
2023-03-16T10:46:28.515Z,38.47
2023-03-16T10:49:02.438Z,38.75
2023-03-16T10:51:37.091Z,38.95
2023-03-16T10:54:14.879Z,39.18
2023-03-16T10:56:43.143Z,39.38
2023-03-16T10:59:29.651Z,39.47
2023-03-16T11:01:58.459Z,39.57
2023-03-16T11:04:32.241Z,39.67
2023-03-16T11:07:00.454Z,39.91
2023-03-16T11:09:37.254Z,39.88
2023-03-16T11:12:30.320Z,40.04
2023-03-16T11:15:20.145Z,40.09
2023-03-16T11:17:54.763Z,40.27
2023-03-16T11:20:26.540Z,40.50
2023-03-16T11:22:54.906Z,40.72
2023-03-16T11:25:26.987Z,40.79
2023-03-16T11:28:13.404Z,40.99
2023-03-16T11:30:56.620Z,41.21
2023-03-16T11:33:27.325Z,41.17
2023-03-16T11:36:39.520Z,41.41
2023-03-16T11:39:14.217Z,41.52
2023-03-16T11:41:51.094Z,41.56
2023-03-16T11:44:35.785Z,41.78
2023-03-16T11:47:08.783Z,41.96
2023-03-16T11:50:11.507Z,42.02
2023-03-16T11:53:05.131Z,42.13
2023-03-16T11:55:33.249Z,42.22
2023-03-16T11:58:13.194Z,42.20
2023-03-16T12:01:09.609Z,42.42
2023-03-16T12:03:44.307Z,42.54
2023-03-16T12:06:30.865Z,42.59
2023-03-16T12:09:37.980Z,42.49
2023-03-16T12:12:58.532Z,42.54
2023-03-16T12:15:39.540Z,42.65
2023-03-16T12:18:16.212Z,42.84
2023-03-16T12:21:00.975Z,42.89
2023-03-16T12:23:43.740Z,42.93
2023-03-16T12:26:12.977Z,42.85
2023-03-16T12:28:42.371Z,42.85
2023-03-16T12:31:29.540Z,42.82
2023-03-16T12:34:24.446Z,42.82
2023-03-16T12:37:13.137Z,42.83
2023-03-16T12:40:06.068Z,42.71
2023-03-16T12:43:10.286Z,42.57
2023-03-16T12:45:57.900Z,42.56
2023-03-16T12:48:34.340Z,42.62
2023-03-16T12:51:05.206Z,42.55
2023-03-16T12:53:51.975Z,42.62
2023-03-16T12:56:31.464Z,42.39
2023-03-16T12:59:03.609Z,42.46
2023-03-16T13:01:43.811Z,42.43
2023-03-16T13:04:21.769Z,42.28
2023-03-16T13:07:01.682Z,42.20
2023-03-16T13:09:32.657Z,42.16
2023-03-16T13:12:05.104Z,42.26
2023-03-16T13:14:40.497Z,42.10
2023-03-16T13:17:17.396Z,42.20
2023-03-16T13:20:06.915Z,42.33
2023-03-16T13:22:51.349Z,42.18
2023-03-16T13:25:36.278Z,42.29
2023-03-16T13:28:06.866Z,42.24
2023-03-16T13:30:35.409Z,42.24
2023-03-16T13:33:19.777Z,42.27
2023-03-16T13:35:50.131Z,42.31
2023-03-16T13:38:20.770Z,42.18
2023-03-16T13:40:53.130Z,42.25
2023-03-16T13:43:30.055Z,42.15
2023-03-16T13:45:58.510Z,42.19
2023-03-16T13:48:26.541Z,42.18
2023-03-16T13:50:57.980Z,42.18
2023-03-16T13:53:31.762Z,42.30
2023-03-16T13:56:02.709Z,42.26
2023-03-16T13:58:38.017Z,42.21
2023-03-16T14:01:18.844Z,42.11
2023-03-16T14:03:47.928Z,41.80
2023-03-16T14:06:25.571Z,41.49
2023-03-16T14:08:58.643Z,41.28
2023-03-16T14:11:28.550Z,41.04
2023-03-16T14:13:58.983Z,41.08
2023-03-16T14:16:29.868Z,41.16
2023-03-16T14:19:02.173Z,41.15
2023-03-16T14:21:36.190Z,41.23
2023-03-16T14:24:07.185Z,41.27
2023-03-16T14:26:46.170Z,41.47
2023-03-16T14:29:18.766Z,41.43
2023-03-16T14:31:47.079Z,41.80
2023-03-16T14:34:32.636Z,41.91
2023-03-16T14:37:20.190Z,42.08
2023-03-16T14:40:01.877Z,42.13
2023-03-16T14:42:31.663Z,42.15
2023-03-16T14:45:02.412Z,42.37
2023-03-16T14:47:33.727Z,42.55
2023-03-16T14:50:10.167Z,42.49
2023-03-16T14:52:38.928Z,42.68
2023-03-16T14:55:15.684Z,42.69
2023-03-16T14:57:45.553Z,42.81
2023-03-16T15:00:15.736Z,42.75
2023-03-16T15:02:51.149Z,42.90
2023-03-16T15:05:29.521Z,42.93
2023-03-16T15:07:58.462Z,42.97
2023-03-16T15:10:30.081Z,42.93
2023-03-16T15:13:06.617Z,43.05
2023-03-16T15:15:35.648Z,42.75
2023-03-16T15:18:04.329Z,42.87
2023-03-16T15:20:38.954Z,43.10
2023-03-16T15:23:09.699Z,43.00
2023-03-16T15:25:39.838Z,42.50
2023-03-16T15:28:14.176Z,42.34
2023-03-16T15:30:44.758Z,41.84
2023-03-16T15:33:14.871Z,41.91
2023-03-16T15:35:43.868Z,41.52
2023-03-16T15:38:28.241Z,41.37
2023-03-16T15:40:56.221Z,41.70
2023-03-16T15:43:27.321Z,41.85
2023-03-16T15:46:00.006Z,41.72
2023-03-16T15:48:29.389Z,41.80
2023-03-16T15:51:01.337Z,41.47
2023-03-16T15:53:50.347Z,41.17
2023-03-16T15:56:23.830Z,41.31
2023-03-16T15:58:52.843Z,41.27
2023-03-16T16:01:26.822Z,41.34
2023-03-16T16:03:56.183Z,41.22
2023-03-16T16:06:24.453Z,41.56
2023-03-16T16:08:52.491Z,42.14
2023-03-16T16:11:28.408Z,42.69
2023-03-16T16:13:57.328Z,43.03
2023-03-16T16:16:30.389Z,43.72
2023-03-16T16:18:58.350Z,44.17
2023-03-16T16:21:30.936Z,44.47
2023-03-16T16:24:01.422Z,44.59
2023-03-16T16:26:48.160Z,44.74
2023-03-16T16:29:24.611Z,44.90
2023-03-16T16:31:53.224Z,44.88
2023-03-16T16:34:24.859Z,45.18
2023-03-16T16:36:54.822Z,45.26
2023-03-16T16:39:23.252Z,45.33
2023-03-16T16:41:54.239Z,45.35
2023-03-16T16:44:30.861Z,45.52
2023-03-16T16:47:00.137Z,45.62
2023-03-16T16:49:31.068Z,45.72
2023-03-16T16:51:59.487Z,45.77
2023-03-16T16:54:31.792Z,45.98
2023-03-16T16:57:01.360Z,45.90
2023-03-16T16:59:36.961Z,45.91
2023-03-16T17:02:18.785Z,46.11
2023-03-16T17:04:46.829Z,46.37
2023-03-16T17:07:15.131Z,46.49
2023-03-16T17:09:42.992Z,46.50
2023-03-16T17:12:24.358Z,46.47
2023-03-16T17:14:52.552Z,46.46
2023-03-16T17:17:22.216Z,46.50
2023-03-16T17:19:50.311Z,46.53
2023-03-16T17:22:28.426Z,46.94
2023-03-16T17:24:56.958Z,46.85
2023-03-16T17:27:28.628Z,46.91
2023-03-16T17:29:57.786Z,46.84
2023-03-16T17:32:26.609Z,46.86
2023-03-16T17:34:54.725Z,46.99
2023-03-16T17:37:23.351Z,47.15
2023-03-16T17:39:52.431Z,47.15
2023-03-16T17:42:23.203Z,47.20
2023-03-16T17:44:54.485Z,47.25
2023-03-16T17:47:23.927Z,47.32
2023-03-16T17:49:52.755Z,47.36
2023-03-16T17:52:26.372Z,47.44
2023-03-16T17:54:54.922Z,47.60
2023-03-16T17:57:29.916Z,47.71
2023-03-16T18:00:01.318Z,47.71
2023-03-16T18:02:48.305Z,47.79
2023-03-16T18:05:23.787Z,47.89
2023-03-16T18:07:52.841Z,48.01
2023-03-16T18:10:25.064Z,48.10
2023-03-16T18:13:03.716Z,48.13
2023-03-16T18:15:35.006Z,48.20
2023-03-16T18:18:07.822Z,48.27
2023-03-16T18:20:37.672Z,48.23
2023-03-16T18:23:23.685Z,48.33
2023-03-16T18:25:54.871Z,48.43
2023-03-16T18:28:23.293Z,48.49
2023-03-16T18:30:52.926Z,48.56
2023-03-16T18:33:30.185Z,48.62
2023-03-16T18:36:01.989Z,48.72
2023-03-16T18:38:35.519Z,48.75
2023-03-16T18:41:22.858Z,48.81
2023-03-16T18:43:53.507Z,48.80
2023-03-16T18:46:23.900Z,48.89
2023-03-16T18:49:04.693Z,48.97
2023-03-16T18:51:33.490Z,48.98
2023-03-16T18:54:02.330Z,49.04
2023-03-16T18:56:33.248Z,49.04
2023-03-16T18:59:02.350Z,49.10
2023-03-16T19:01:33.369Z,49.08
2023-03-16T19:04:02.292Z,49.11
2023-03-16T19:06:33.761Z,49.13
2023-03-16T19:09:27.920Z,49.21
2023-03-16T19:11:56.362Z,49.26
2023-03-16T19:14:32.010Z,49.35
2023-03-16T19:17:00.948Z,49.43
2023-03-16T19:19:29.848Z,49.45
2023-03-16T19:22:11.991Z,49.50
2023-03-16T19:24:51.407Z,49.53
2023-03-16T19:27:31.591Z,49.54
2023-03-16T19:30:00.439Z,49.59
2023-03-16T19:32:28.424Z,49.64
2023-03-16T19:34:56.689Z,49.69
2023-03-16T19:37:26.764Z,49.73
2023-03-16T19:39:54.925Z,49.76
2023-03-16T19:42:33.681Z,49.77
2023-03-16T19:45:04.003Z,49.76
2023-03-16T19:47:34.811Z,49.78
2023-03-16T19:50:13.154Z,49.77
2023-03-16T19:52:41.998Z,49.77
2023-03-16T19:55:16.078Z,49.78
2023-03-16T19:57:45.623Z,49.79
2023-03-16T20:00:26.078Z,49.82
2023-03-16T20:02:56.192Z,49.82
2023-03-16T20:05:28.887Z,49.81
2023-03-16T20:07:59.610Z,49.82
2023-03-16T20:10:32.567Z,49.88
2023-03-16T20:13:01.829Z,49.90
2023-03-16T20:15:33.391Z,49.94
2023-03-16T20:18:03.148Z,49.95
2023-03-16T20:20:35.992Z,49.96
2023-03-16T20:23:18.791Z,49.97
2023-03-16T20:25:48.528Z,50.01
2023-03-16T20:28:22.616Z,50.04
2023-03-16T20:30:51.042Z,50.01
2023-03-16T20:33:24.527Z,50.05
2023-03-16T20:35:56.386Z,50.02
2023-03-16T20:38:25.720Z,50.11
2023-03-16T20:40:55.044Z,50.10
2023-03-16T20:43:27.192Z,50.05
2023-03-16T20:46:01.652Z,50.10
2023-03-16T20:48:30.125Z,50.12
2023-03-16T20:51:00.194Z,50.23
2023-03-16T20:53:28.693Z,50.24
2023-03-16T20:55:57.145Z,50.27
2023-03-16T20:58:30.534Z,50.30
2023-03-16T21:01:01.150Z,50.27
2023-03-16T21:03:31.030Z,50.19
2023-03-16T21:05:59.939Z,50.09
2023-03-16T21:08:30.006Z,50.16
2023-03-16T21:10:59.968Z,50.15
2023-03-16T21:13:33.414Z,50.11
2023-03-16T21:16:03.654Z,50.18
2023-03-16T21:18:33.158Z,50.19
2023-03-16T21:21:01.957Z,50.16
2023-03-16T21:23:30.142Z,50.17
2023-03-16T21:26:01.549Z,50.22
2023-03-16T21:28:33.263Z,50.21
2023-03-16T21:31:03.080Z,50.24
2023-03-16T21:33:37.941Z,50.24
2023-03-16T21:36:13.056Z,50.21
2023-03-16T21:38:41.333Z,50.26
2023-03-16T21:41:10.056Z,50.30
2023-03-16T21:43:39.671Z,50.40
2023-03-16T21:46:18.445Z,50.38
2023-03-16T21:48:51.674Z,50.37
2023-03-16T21:51:23.269Z,50.40
2023-03-16T21:53:51.795Z,50.28
2023-03-16T21:56:23.194Z,50.36
2023-03-16T21:58:52.214Z,50.38
2023-03-16T22:01:32.387Z,50.37
2023-03-16T22:04:17.270Z,50.39
2023-03-16T22:06:46.093Z,50.47
2023-03-16T22:09:22.647Z,50.35
2023-03-16T22:11:50.968Z,50.32
2023-03-16T22:14:19.160Z,50.39
2023-03-16T22:16:47.480Z,50.47
2023-03-16T22:19:17.817Z,50.49
2023-03-16T22:21:47.305Z,50.49
2023-03-16T22:24:24.897Z,50.49
2023-03-16T22:26:53.954Z,50.39
2023-03-16T22:29:28.504Z,50.39
2023-03-16T22:32:04.560Z,50.43
2023-03-16T22:34:47.990Z,50.42
2023-03-16T22:37:23.100Z,50.39
2023-03-16T22:39:53.068Z,50.36
2023-03-16T22:42:47.377Z,50.40
2023-03-16T22:45:26.797Z,50.33
2023-03-16T22:47:56.529Z,50.33
2023-03-16T22:50:28.179Z,50.25
2023-03-16T22:52:59.727Z,50.30
2023-03-16T22:55:32.278Z,50.29
2023-03-16T22:58:08.014Z,50.31
2023-03-16T23:00:36.205Z,50.26
2023-03-16T23:03:05.541Z,50.18
2023-03-16T23:05:33.671Z,50.19
2023-03-16T23:08:02.706Z,50.18
2023-03-16T23:10:31.552Z,50.07
2023-03-16T23:13:00.524Z,50.12
2023-03-16T23:15:31.105Z,50.11
2023-03-16T23:17:59.361Z,50.17
2023-03-16T23:20:31.776Z,50.20
2023-03-16T23:23:00.524Z,50.18
2023-03-16T23:25:28.365Z,50.12
2023-03-16T23:27:57.577Z,50.10
2023-03-16T23:30:26.684Z,50.04
2023-03-16T23:32:56.790Z,50.14
2023-03-16T23:35:30.036Z,50.15
2023-03-16T23:37:58.460Z,50.24
2023-03-16T23:40:29.230Z,50.29
2023-03-16T23:43:00.752Z,50.34
2023-03-16T23:45:37.286Z,50.31
2023-03-16T23:48:07.755Z,50.26
2023-03-16T23:50:37.845Z,50.26
2023-03-16T23:53:12.357Z,50.29
2023-03-16T23:55:41.958Z,50.35
2023-03-16T23:58:11.049Z,50.35
